createdAt,value
2018-11-26T00:00:31.786Z,98256.45
2018-11-26T00:01:07.098Z,98266.17
2018-11-26T00:01:42.535Z,98270.43
2018-11-26T00:02:17.719Z,98272.30
2018-11-26T00:02:53.030Z,98271.20
2018-11-26T00:03:28.129Z,98271.73
2018-11-26T00:04:03.455Z,98269.57
2018-11-26T00:04:38.887Z,98257.14
2018-11-26T00:05:14.312Z,98263.36
2018-11-26T00:05:49.615Z,98257.70
2018-11-26T00:06:24.946Z,98245.28
2018-11-26T00:07:00.302Z,98242.79
2018-11-26T00:07:35.754Z,98235.27
2018-11-26T00:08:12.775Z,98237.44
2018-11-26T00:08:48.431Z,98233.92
2018-11-26T00:09:23.652Z,98233.44
2018-11-26T00:10:08.506Z,98227.22
2018-11-26T00:10:54.447Z,98230.82
2018-11-26T00:11:32.975Z,98238.91
2018-11-26T00:12:08.322Z,98247.09
2018-11-26T00:12:44.620Z,98245.54
2018-11-26T00:13:19.902Z,98248.52
2018-11-26T00:13:55.032Z,98254.66
2018-11-26T00:14:30.493Z,98262.50
2018-11-26T00:15:05.927Z,98269.04
2018-11-26T00:15:41.281Z,98265.84
2018-11-26T00:16:16.958Z,98275.28
2018-11-26T00:16:52.498Z,98267.20
2018-11-26T00:17:27.962Z,98273.44
2018-11-26T00:18:03.330Z,98274.55
2018-11-26T00:18:38.782Z,98275.64
2018-11-26T00:19:14.178Z,98264.36
2018-11-26T00:19:49.527Z,98266.52
2018-11-26T00:20:24.784Z,98258.19
2018-11-26T00:21:00.110Z,98254.42
2018-11-26T00:21:35.478Z,98244.96
2018-11-26T00:22:10.883Z,98249.01
2018-11-26T00:22:46.129Z,98241.20
2018-11-26T00:23:21.535Z,98243.15
2018-11-26T00:23:56.877Z,98234.25
2018-11-26T00:24:32.107Z,98240.73
2018-11-26T00:25:08.101Z,98238.33
2018-11-26T00:25:43.498Z,98242.90
2018-11-26T00:26:19.089Z,98241.30
2018-11-26T00:26:54.413Z,98242.12
2018-11-26T00:27:29.701Z,98243.22
2018-11-26T00:28:05.043Z,98248.35
2018-11-26T00:28:40.369Z,98246.76
2018-11-26T00:29:15.844Z,98240.27
2018-11-26T00:29:51.211Z,98238.08
2018-11-26T00:30:26.464Z,98253.99
2018-11-26T00:31:01.875Z,98251.86
2018-11-26T00:31:37.326Z,98257.25
2018-11-26T00:32:12.581Z,98262.92
2018-11-26T00:32:48.114Z,98256.75
2018-11-26T00:33:23.608Z,98255.44
2018-11-26T00:33:58.829Z,98260.48
2018-11-26T00:34:34.190Z,98265.05
2018-11-26T00:35:09.694Z,98266.97
2018-11-26T00:35:45.010Z,98267.25
2018-11-26T00:36:20.627Z,98255.71
2018-11-26T00:36:56.222Z,98253.55
2018-11-26T00:37:31.668Z,98253.02
2018-11-26T00:38:06.987Z,98253.30
2018-11-26T00:38:42.260Z,98258.13
2018-11-26T00:39:17.463Z,98253.05
2018-11-26T00:39:52.902Z,98259.27
2018-11-26T00:40:28.219Z,98256.83
2018-11-26T00:41:03.565Z,98262.52
2018-11-26T00:41:39.216Z,98265.75
2018-11-26T00:42:14.796Z,98269.01
2018-11-26T00:42:50.061Z,98274.39
2018-11-26T00:43:25.325Z,98274.09
2018-11-26T00:44:01.681Z,98276.81
2018-11-26T00:44:37.124Z,98285.14
2018-11-26T00:45:13.626Z,98287.55
2018-11-26T00:45:49.045Z,98283.01
2018-11-26T00:46:24.613Z,98290.55
2018-11-26T00:47:00.066Z,98283.83
2018-11-26T00:47:35.571Z,98291.37
2018-11-26T00:48:10.973Z,98288.39
2018-11-26T00:48:46.322Z,98290.81
2018-11-26T00:49:21.965Z,98291.34
2018-11-26T00:49:57.393Z,98297.52
2018-11-26T00:50:32.742Z,98296.94
2018-11-26T00:51:08.454Z,98307.48
2018-11-26T00:51:43.855Z,98300.49
2018-11-26T00:52:19.210Z,98312.01
2018-11-26T00:52:54.546Z,98311.73
2018-11-26T00:53:30.146Z,98312.77
2018-11-26T00:54:05.685Z,98318.47
2018-11-26T00:54:40.960Z,98320.91
2018-11-26T00:55:16.438Z,98316.91
2018-11-26T00:55:51.594Z,98322.33
2018-11-26T00:56:26.923Z,98318.53
2018-11-26T00:57:02.352Z,98325.81
2018-11-26T00:57:37.842Z,98317.70
2018-11-26T00:58:13.423Z,98315.01
2018-11-26T00:58:48.692Z,98315.03
2018-11-26T00:59:24.101Z,98310.45
2018-11-26T00:59:59.242Z,98299.42
2018-11-26T01:00:34.498Z,98291.37
2018-11-26T01:01:09.819Z,98288.44
2018-11-26T01:01:45.204Z,98282.80
2018-11-26T01:02:20.702Z,98280.13
2018-11-26T01:02:56.072Z,98277.96
2018-11-26T01:03:31.598Z,98281.19
2018-11-26T01:04:07.016Z,98282.81
2018-11-26T01:04:42.698Z,98275.55
2018-11-26T01:05:30.771Z,98283.33
2018-11-26T01:06:06.353Z,98272.55
2018-11-26T01:06:41.635Z,98275.25
2018-11-26T01:07:17.168Z,98275.00
2018-11-26T01:07:52.509Z,98278.78
2018-11-26T01:08:27.899Z,98271.19
2018-11-26T01:09:03.384Z,98276.58
2018-11-26T01:09:38.891Z,98279.83
2018-11-26T01:10:14.408Z,98270.86
2018-11-26T01:10:50.040Z,98278.73
2018-11-26T01:11:25.244Z,98265.85
2018-11-26T01:12:00.659Z,98268.52
2018-11-26T01:12:36.008Z,98258.56
2018-11-26T01:13:11.222Z,98258.81
2018-11-26T01:13:46.548Z,98261.23
2018-11-26T01:14:21.930Z,98253.38
2018-11-26T01:14:57.394Z,98252.28
2018-11-26T01:15:32.850Z,98249.84
2018-11-26T01:16:08.049Z,98248.47
2018-11-26T01:16:43.236Z,98241.48
2018-11-26T01:17:18.871Z,98236.12
2018-11-26T01:17:54.340Z,98240.45
2018-11-26T01:18:29.687Z,98241.03
2018-11-26T01:19:04.919Z,98234.05
2018-11-26T01:19:40.255Z,98233.48
2018-11-26T01:20:15.655Z,98228.13
2018-11-26T01:20:51.017Z,98227.28
2018-11-26T01:21:26.540Z,98233.20
2018-11-26T01:22:01.925Z,98222.43
2018-11-26T01:22:37.414Z,98223.24
2018-11-26T01:23:12.792Z,98218.95
2018-11-26T01:23:48.131Z,98215.19
2018-11-26T01:24:23.417Z,98210.34
2018-11-26T01:24:59.001Z,98216.00
2018-11-26T01:25:34.405Z,98216.20
2018-11-26T01:26:09.739Z,98210.87
2018-11-26T01:26:45.039Z,98209.22
2018-11-26T01:27:20.032Z,98199.56
2018-11-26T01:27:55.466Z,98195.53
2018-11-26T01:28:30.854Z,98206.83
2018-11-26T01:29:06.753Z,98199.88
2018-11-26T01:29:42.193Z,98200.10
2018-11-26T01:30:17.439Z,98204.95
2018-11-26T01:30:52.790Z,98194.77
2018-11-26T01:31:28.092Z,98194.69
2018-11-26T01:32:03.470Z,98194.63
2018-11-26T01:32:38.903Z,98194.66
2018-11-26T01:33:14.398Z,98197.00
2018-11-26T01:33:49.546Z,98200.48
2018-11-26T01:34:25.161Z,98200.20
2018-11-26T01:35:00.577Z,98194.37
2018-11-26T01:35:35.935Z,98200.30
2018-11-26T01:36:11.309Z,98197.91
2018-11-26T01:36:47.526Z,98199.20
2018-11-26T01:37:22.934Z,98204.58
2018-11-26T01:37:58.416Z,98202.14
2018-11-26T01:38:33.919Z,98205.62
2018-11-26T01:39:10.634Z,98200.52
2018-11-26T01:39:46.244Z,98202.33
2018-11-26T01:40:28.026Z,98204.24
2018-11-26T01:41:03.568Z,98203.42
2018-11-26T01:41:39.769Z,98203.95
2018-11-26T01:42:15.216Z,98194.21
2018-11-26T01:42:51.170Z,98201.77
2018-11-26T01:43:26.924Z,98186.09
2018-11-26T01:44:02.183Z,98195.48
2018-11-26T01:44:37.547Z,98191.95
2018-11-26T01:45:13.008Z,98192.22
2018-11-26T01:45:48.237Z,98191.66
2018-11-26T01:46:23.678Z,98178.42
2018-11-26T01:46:58.920Z,98184.88
2018-11-26T01:47:34.290Z,98182.42
2018-11-26T01:48:09.793Z,98178.87
2018-11-26T01:48:45.126Z,98179.13
2018-11-26T01:49:20.509Z,98175.60
2018-11-26T01:49:56.019Z,98188.52
2018-11-26T01:50:31.380Z,98179.85
2018-11-26T01:51:07.253Z,98167.19
2018-11-26T01:51:42.622Z,98171.52
2018-11-26T01:52:18.076Z,98167.42
2018-11-26T01:52:53.595Z,98164.44
2018-11-26T01:53:28.808Z,98158.52
2018-11-26T01:54:04.209Z,98145.36
2018-11-26T01:54:39.507Z,98152.55
2018-11-26T01:55:14.871Z,98154.13
2018-11-26T01:55:50.375Z,98145.48
2018-11-26T01:56:25.551Z,98140.86
2018-11-26T01:57:00.863Z,98139.78
2018-11-26T01:57:36.200Z,98137.95
2018-11-26T01:58:11.708Z,98133.29
2018-11-26T01:58:46.952Z,98134.11
2018-11-26T01:59:22.455Z,98118.98
2018-11-26T01:59:57.758Z,98124.38
2018-11-26T02:00:33.221Z,98119.27
2018-11-26T02:01:08.621Z,98118.11
2018-11-26T02:01:43.981Z,98117.67
2018-11-26T02:02:19.472Z,98113.55
2018-11-26T02:02:55.153Z,98118.10
2018-11-26T02:03:30.515Z,98112.70
2018-11-26T02:04:05.777Z,98108.96
2018-11-26T02:04:41.057Z,98109.23
2018-11-26T02:05:16.401Z,98108.91
2018-11-26T02:05:51.817Z,98110.50
2018-11-26T02:06:27.241Z,98108.86
2018-11-26T02:07:02.734Z,98104.14
2018-11-26T02:07:37.907Z,98102.98
2018-11-26T02:08:13.338Z,98098.50
2018-11-26T02:08:48.523Z,98099.28
2018-11-26T02:09:23.976Z,98098.98
2018-11-26T02:09:59.242Z,98089.31
2018-11-26T02:10:34.608Z,98094.47
2018-11-26T02:11:10.147Z,98093.45
2018-11-26T02:11:45.530Z,98086.38
2018-11-26T02:12:21.008Z,98091.48
2018-11-26T02:12:56.289Z,98089.31
2018-11-26T02:13:31.643Z,98089.84
2018-11-26T02:14:07.169Z,98086.86
2018-11-26T02:14:42.696Z,98084.74
2018-11-26T02:15:28.316Z,98083.45
2018-11-26T02:16:03.625Z,98078.05
2018-11-26T02:16:38.974Z,98076.22
2018-11-26T02:17:14.292Z,98077.28
2018-11-26T02:17:49.642Z,98082.48
2018-11-26T02:18:25.180Z,98070.70
2018-11-26T02:19:00.476Z,98075.17
2018-11-26T02:19:35.664Z,98075.70
2018-11-26T02:20:12.110Z,98067.61
2018-11-26T02:20:47.560Z,98065.14
2018-11-26T02:21:22.855Z,98066.14
2018-11-26T02:21:58.519Z,98065.63
2018-11-26T02:22:33.909Z,98054.89
2018-11-26T02:23:09.312Z,98061.23
2018-11-26T02:23:45.067Z,98057.34
2018-11-26T02:24:20.417Z,98058.47
2018-11-26T02:24:55.869Z,98060.86
2018-11-26T02:25:31.183Z,98053.70
2018-11-26T02:26:06.693Z,98052.25
2018-11-26T02:26:41.940Z,98050.08
2018-11-26T02:27:17.553Z,98050.34
2018-11-26T02:27:53.033Z,98054.69
2018-11-26T02:28:28.311Z,98047.11
2018-11-26T02:29:03.737Z,98041.78
2018-11-26T02:29:39.925Z,98036.56
2018-11-26T02:30:15.194Z,98035.87
2018-11-26T02:30:50.882Z,98037.80
2018-11-26T02:31:26.358Z,98029.85
2018-11-26T02:32:01.670Z,98037.65
2018-11-26T02:32:36.923Z,98035.29
2018-11-26T02:33:12.412Z,98032.88
2018-11-26T02:33:48.281Z,98033.13
2018-11-26T02:34:23.869Z,98031.00
2018-11-26T02:34:59.197Z,98021.81
2018-11-26T02:35:34.474Z,98020.19
2018-11-26T02:36:09.626Z,98027.01
2018-11-26T02:36:45.044Z,98023.82
2018-11-26T02:37:20.349Z,98020.55
2018-11-26T02:37:55.598Z,98031.09
2018-11-26T02:38:30.922Z,98019.79
2018-11-26T02:39:07.782Z,98019.74
2018-11-26T02:39:43.110Z,98019.45
2018-11-26T02:40:26.567Z,98021.61
2018-11-26T02:41:01.914Z,98028.27
2018-11-26T02:41:37.439Z,98019.74
2018-11-26T02:42:13.038Z,98019.02
2018-11-26T02:42:48.495Z,98016.60
2018-11-26T02:43:23.902Z,98009.86
2018-11-26T02:43:59.421Z,98023.05
2018-11-26T02:44:34.629Z,98012.56
2018-11-26T02:45:10.184Z,98014.73
2018-11-26T02:45:45.621Z,98021.46
2018-11-26T02:46:21.077Z,98017.17
2018-11-26T02:46:56.622Z,98016.08
2018-11-26T02:47:32.419Z,98011.75
2018-11-26T02:48:08.059Z,98010.11
2018-11-26T02:48:43.461Z,98015.25
2018-11-26T02:49:18.704Z,98007.41
2018-11-26T02:49:54.181Z,98008.47
2018-11-26T02:50:29.491Z,98014.36
2018-11-26T02:51:04.966Z,98012.80
2018-11-26T02:51:40.296Z,98012.19
2018-11-26T02:52:15.580Z,98006.89
2018-11-26T02:52:50.845Z,98007.95
2018-11-26T02:53:26.279Z,98009.49
2018-11-26T02:54:01.514Z,98008.14
2018-11-26T02:54:36.892Z,98006.84
2018-11-26T02:55:12.186Z,98011.50
2018-11-26T02:55:47.673Z,98009.30
2018-11-26T02:56:23.055Z,98007.17
2018-11-26T02:56:58.418Z,98009.34
2018-11-26T02:57:33.672Z,98013.42
2018-11-26T02:58:09.022Z,98008.03
2018-11-26T02:58:44.553Z,98009.38
2018-11-26T02:59:19.989Z,98016.27
2018-11-26T02:59:55.291Z,97999.59
2018-11-26T03:00:30.709Z,98006.08
2018-11-26T03:01:06.367Z,97999.53
2018-11-26T03:01:41.637Z,98001.41
2018-11-26T03:02:17.082Z,98003.91
2018-11-26T03:02:52.230Z,98001.08
2018-11-26T03:03:27.801Z,98003.48
2018-11-26T03:04:03.176Z,97997.37
2018-11-26T03:04:38.572Z,97996.60
2018-11-26T03:05:17.025Z,97990.26
2018-11-26T03:05:52.182Z,97996.02
2018-11-26T03:06:27.601Z,97982.27
2018-11-26T03:07:02.994Z,97989.00
2018-11-26T03:07:38.460Z,97982.31
2018-11-26T03:08:13.854Z,97984.23
2018-11-26T03:08:49.262Z,97984.43
2018-11-26T03:09:24.612Z,97993.03
2018-11-26T03:09:59.971Z,97967.92
2018-11-26T03:10:35.189Z,97983.53
2018-11-26T03:11:10.700Z,97983.53
2018-11-26T03:11:46.122Z,97982.64
2018-11-26T03:12:21.509Z,97985.73
2018-11-26T03:12:56.743Z,97977.50
2018-11-26T03:13:32.499Z,97979.52
2018-11-26T03:14:08.486Z,97979.39
2018-11-26T03:14:44.067Z,97981.53
2018-11-26T03:15:19.519Z,97976.55
2018-11-26T03:15:54.860Z,97977.94
2018-11-26T03:16:30.522Z,97976.30
2018-11-26T03:17:05.881Z,97979.70
2018-11-26T03:17:41.404Z,97971.98
2018-11-26T03:18:17.062Z,97969.09
2018-11-26T03:18:52.462Z,97969.04
2018-11-26T03:19:27.821Z,97965.30
2018-11-26T03:20:03.433Z,97973.80
2018-11-26T03:20:38.790Z,97965.58
2018-11-26T03:21:14.171Z,97970.44
2018-11-26T03:21:49.627Z,97967.94
2018-11-26T03:22:25.103Z,97973.31
2018-11-26T03:23:00.445Z,97972.75
2018-11-26T03:23:35.868Z,97969.23
2018-11-26T03:24:11.370Z,97965.52
2018-11-26T03:24:46.727Z,97964.70
2018-11-26T03:25:22.168Z,97964.46
2018-11-26T03:25:57.617Z,97965.24
2018-11-26T03:26:33.028Z,97965.24
2018-11-26T03:27:08.567Z,97954.52
2018-11-26T03:27:44.287Z,97957.05
2018-11-26T03:28:19.609Z,97956.19
2018-11-26T03:28:55.215Z,97956.19
2018-11-26T03:29:30.936Z,97957.01
2018-11-26T03:30:10.492Z,97952.45
2018-11-26T03:30:46.043Z,97948.73
2018-11-26T03:31:21.512Z,97953.25
2018-11-26T03:31:57.120Z,97954.51
2018-11-26T03:32:32.636Z,97954.84
2018-11-26T03:33:09.645Z,97954.84
2018-11-26T03:33:45.143Z,97953.30
2018-11-26T03:34:20.682Z,97946.24
2018-11-26T03:34:56.130Z,97956.72
2018-11-26T03:35:32.063Z,97948.31
2018-11-26T03:36:07.727Z,97949.70
2018-11-26T03:36:43.296Z,97953.12
2018-11-26T03:37:18.811Z,97943.83
2018-11-26T03:37:54.358Z,97953.17
2018-11-26T03:38:40.007Z,97938.21
2018-11-26T03:39:15.500Z,97941.72
2018-11-26T03:39:51.214Z,97939.89
2018-11-26T03:40:26.593Z,97938.05
2018-11-26T03:41:02.182Z,97938.79
2018-11-26T03:41:37.507Z,97938.02
2018-11-26T03:42:12.939Z,97933.50
2018-11-26T03:42:48.456Z,97941.14
2018-11-26T03:43:23.934Z,97931.53
2018-11-26T03:43:59.510Z,97930.80
2018-11-26T03:44:34.994Z,97931.53
2018-11-26T03:45:17.177Z,97927.44
2018-11-26T03:45:52.632Z,97926.67
2018-11-26T03:46:27.936Z,97933.35
2018-11-26T03:47:03.545Z,97938.73
2018-11-26T03:47:39.097Z,97936.77
2018-11-26T03:48:14.494Z,97932.05
2018-11-26T03:48:49.959Z,97933.44
2018-11-26T03:49:25.485Z,97930.89
2018-11-26T03:50:01.036Z,97926.22
2018-11-26T03:50:36.284Z,97924.03
2018-11-26T03:51:11.832Z,97930.41
2018-11-26T03:51:47.342Z,97934.61
2018-11-26T03:52:22.783Z,97924.39
2018-11-26T03:52:58.298Z,97930.95
2018-11-26T03:53:33.758Z,97932.83
2018-11-26T03:54:09.484Z,97932.05
2018-11-26T03:54:45.172Z,97930.31
2018-11-26T03:55:20.426Z,97935.41
2018-11-26T03:55:55.776Z,97934.06
2018-11-26T03:56:31.432Z,97928.87
2018-11-26T03:57:06.930Z,97924.73
2018-11-26T03:57:42.712Z,97927.78
2018-11-26T03:58:18.065Z,97923.73
2018-11-26T03:58:53.395Z,97930.41
2018-11-26T03:59:28.915Z,97923.81
2018-11-26T04:00:04.403Z,97911.30
2018-11-26T04:00:39.683Z,97914.81
2018-11-26T04:01:15.120Z,97910.95
2018-11-26T04:01:50.327Z,97910.17
2018-11-26T04:02:25.892Z,97912.78
2018-11-26T04:03:01.193Z,97911.19
2018-11-26T04:03:36.576Z,97906.69
2018-11-26T04:04:12.019Z,97914.70
2018-11-26T04:04:47.750Z,97905.73
2018-11-26T04:05:23.492Z,97906.46
2018-11-26T04:05:59.037Z,97902.09
2018-11-26T04:06:34.474Z,97908.83
2018-11-26T04:07:10.185Z,97903.13
2018-11-26T04:07:45.558Z,97902.89
2018-11-26T04:08:21.390Z,97897.74
2018-11-26T04:08:57.058Z,97897.92
2018-11-26T04:09:32.363Z,97899.73
2018-11-26T04:10:09.961Z,97889.23
2018-11-26T04:10:45.568Z,97891.63
2018-11-26T04:11:21.137Z,97887.52
2018-11-26T04:11:56.556Z,97893.98
2018-11-26T04:12:32.127Z,97888.05
2018-11-26T04:13:07.660Z,97887.83
2018-11-26T04:13:43.376Z,97888.05
2018-11-26T04:14:18.609Z,97887.69
2018-11-26T04:14:54.093Z,97889.28
2018-11-26T04:15:29.581Z,97891.22
2018-11-26T04:16:05.140Z,97885.31
2018-11-26T04:16:40.677Z,97885.83
2018-11-26T04:17:16.645Z,97880.95
2018-11-26T04:17:52.686Z,97888.45
2018-11-26T04:18:28.337Z,97884.41
2018-11-26T04:19:03.982Z,97887.87
2018-11-26T04:19:39.397Z,97882.98
2018-11-26T04:20:14.913Z,97883.28
2018-11-26T04:20:50.512Z,97883.30
2018-11-26T04:21:26.006Z,97874.73
2018-11-26T04:22:01.759Z,97893.33
2018-11-26T04:22:37.495Z,97881.64
2018-11-26T04:23:12.760Z,97879.48
2018-11-26T04:23:48.356Z,97875.78
2018-11-26T04:24:23.873Z,97875.88
2018-11-26T04:24:59.086Z,97884.39
2018-11-26T04:25:34.730Z,97881.72
2018-11-26T04:26:10.058Z,97879.09
2018-11-26T04:26:45.569Z,97880.95
2018-11-26T04:27:20.841Z,97884.06
2018-11-26T04:27:56.106Z,97880.14
2018-11-26T04:28:31.576Z,97882.06
2018-11-26T04:29:07.769Z,97882.18
2018-11-26T04:29:43.196Z,97885.63
2018-11-26T04:30:18.708Z,97877.17
2018-11-26T04:30:54.104Z,97885.09
2018-11-26T04:31:29.701Z,97880.23
2018-11-26T04:32:05.245Z,97879.53
2018-11-26T04:32:41.526Z,97884.66
2018-11-26T04:33:16.720Z,97885.00
2018-11-26T04:33:52.186Z,97882.47
2018-11-26T04:34:27.991Z,97878.88
2018-11-26T04:35:03.915Z,97879.31
2018-11-26T04:35:39.822Z,97881.42
2018-11-26T04:36:15.394Z,97876.88
2018-11-26T04:36:51.144Z,97879.19
2018-11-26T04:37:26.722Z,97876.86
2018-11-26T04:38:02.281Z,97879.80
2018-11-26T04:38:37.646Z,97879.34
2018-11-26T04:39:13.080Z,97881.95
2018-11-26T04:39:48.841Z,97878.25
2018-11-26T04:40:24.388Z,97875.88
2018-11-26T04:40:59.776Z,97879.84
2018-11-26T04:41:35.230Z,97882.77
2018-11-26T04:42:10.645Z,97871.22
2018-11-26T04:42:46.261Z,97880.36
2018-11-26T04:43:21.839Z,97882.84
2018-11-26T04:43:57.175Z,97879.84
2018-11-26T04:44:32.480Z,97876.86
2018-11-26T04:45:09.868Z,97874.35
2018-11-26T04:45:45.016Z,97878.03
2018-11-26T04:46:20.603Z,97880.33
2018-11-26T04:46:56.069Z,97877.52
2018-11-26T04:47:31.570Z,97880.09
2018-11-26T04:48:06.806Z,97882.02
2018-11-26T04:48:42.126Z,97878.88
2018-11-26T04:49:17.367Z,97880.38
2018-11-26T04:49:52.810Z,97881.31
2018-11-26T04:50:28.374Z,97880.16
2018-11-26T04:51:03.577Z,97889.28
2018-11-26T04:51:38.936Z,97876.57
2018-11-26T04:52:14.298Z,97883.84
2018-11-26T04:52:50.009Z,97878.20
2018-11-26T04:53:25.660Z,97881.36
2018-11-26T04:54:01.328Z,97879.89
2018-11-26T04:54:37.000Z,97879.38
2018-11-26T04:55:13.634Z,97876.97
2018-11-26T04:55:48.846Z,97878.44
2018-11-26T04:56:24.675Z,97883.19
2018-11-26T04:57:00.240Z,97878.31
2018-11-26T04:57:35.589Z,97876.79
2018-11-26T04:58:10.946Z,97885.06
2018-11-26T04:58:46.328Z,97879.96
2018-11-26T04:59:22.113Z,97874.92
2018-11-26T04:59:57.455Z,97876.27
2018-11-26T05:00:32.837Z,97879.48
2018-11-26T05:01:08.292Z,97875.20
2018-11-26T05:01:43.750Z,97869.95
2018-11-26T05:02:18.944Z,97873.80
2018-11-26T05:02:54.458Z,97875.67
2018-11-26T05:03:29.889Z,97874.34
2018-11-26T05:04:05.409Z,97878.19
2018-11-26T05:04:40.739Z,97878.19
2018-11-26T05:05:16.280Z,97873.17
2018-11-26T05:05:51.541Z,97875.27
2018-11-26T05:06:27.024Z,97876.98
2018-11-26T05:07:02.872Z,97879.81
2018-11-26T05:07:38.237Z,97883.47
2018-11-26T05:08:13.469Z,97881.35
2018-11-26T05:08:49.302Z,97873.21
2018-11-26T05:09:24.703Z,97877.84
2018-11-26T05:09:59.945Z,97875.67
2018-11-26T05:10:35.612Z,97872.50
2018-11-26T05:11:10.785Z,97868.00
2018-11-26T05:11:46.462Z,97871.03
2018-11-26T05:12:21.705Z,97868.09
2018-11-26T05:12:57.044Z,97859.36
2018-11-26T05:13:32.280Z,97870.06
2018-11-26T05:14:07.715Z,97872.91
2018-11-26T05:14:43.182Z,97869.20
2018-11-26T05:15:18.636Z,97873.72
2018-11-26T05:15:53.982Z,97872.37
2018-11-26T05:16:29.205Z,97864.20
2018-11-26T05:17:04.523Z,97867.94
2018-11-26T05:17:39.887Z,97865.14
2018-11-26T05:18:15.352Z,97867.23
2018-11-26T05:18:50.813Z,97868.48
2018-11-26T05:19:26.030Z,97868.80
2018-11-26T05:20:01.592Z,97870.20
2018-11-26T05:20:36.856Z,97862.55
2018-11-26T05:21:12.123Z,97862.86
2018-11-26T05:21:47.516Z,97866.77
2018-11-26T05:22:22.773Z,97867.30
2018-11-26T05:22:58.156Z,97868.28
2018-11-26T05:23:33.539Z,97875.83
2018-11-26T05:24:09.121Z,97866.34
2018-11-26T05:24:44.252Z,97871.09
2018-11-26T05:25:19.649Z,97865.55
2018-11-26T05:25:54.905Z,97865.05
2018-11-26T05:26:30.201Z,97861.58
2018-11-26T05:27:05.669Z,97870.34
2018-11-26T05:27:41.193Z,97867.49
2018-11-26T05:28:16.452Z,97861.09
2018-11-26T05:28:51.676Z,97853.07
2018-11-26T05:29:27.063Z,97863.95
2018-11-26T05:30:02.259Z,97869.39
2018-11-26T05:30:37.703Z,97864.28
2018-11-26T05:31:12.931Z,97865.88
2018-11-26T05:31:48.264Z,97868.11
2018-11-26T05:32:23.576Z,97862.33
2018-11-26T05:32:58.693Z,97876.23
2018-11-26T05:33:34.255Z,97866.52
2018-11-26T05:34:09.596Z,97876.23
2018-11-26T05:34:45.189Z,97868.48
2018-11-26T05:35:20.431Z,97872.00
2018-11-26T05:35:55.920Z,97872.82
2018-11-26T05:36:31.319Z,97873.63
2018-11-26T05:37:07.305Z,97875.73
2018-11-26T05:37:42.651Z,97869.01
2018-11-26T05:38:17.995Z,97869.01
2018-11-26T05:38:53.567Z,97870.60
2018-11-26T05:39:28.711Z,97873.05
2018-11-26T05:40:04.407Z,97870.36
2018-11-26T05:40:39.631Z,97874.45
2018-11-26T05:41:15.320Z,97880.65
2018-11-26T05:41:50.480Z,97860.07
2018-11-26T05:42:28.842Z,97871.36
2018-11-26T05:43:01.196Z,97858.38
2018-11-26T05:43:36.634Z,97864.53
2018-11-26T05:44:12.087Z,97862.20
2018-11-26T05:44:47.452Z,97863.02
2018-11-26T05:45:22.651Z,97871.21
2018-11-26T05:45:57.887Z,97865.20
2018-11-26T05:46:33.347Z,97873.84
2018-11-26T05:47:08.711Z,97870.58
2018-11-26T05:47:44.293Z,97867.06
2018-11-26T05:48:19.808Z,97865.53
2018-11-26T05:48:55.246Z,97865.05
2018-11-26T05:49:30.501Z,97866.75
2018-11-26T05:50:07.559Z,97868.09
2018-11-26T05:50:42.772Z,97859.25
2018-11-26T05:51:18.196Z,97867.86
2018-11-26T05:51:53.463Z,97868.58
2018-11-26T05:52:29.057Z,97864.95
2018-11-26T05:53:04.401Z,97857.06
2018-11-26T05:53:39.848Z,97861.97
2018-11-26T05:54:15.405Z,97868.89
2018-11-26T05:54:50.979Z,97864.86
2018-11-26T05:55:26.344Z,97856.28
2018-11-26T05:56:01.830Z,97858.57
2018-11-26T05:56:37.266Z,97863.53
2018-11-26T05:57:12.656Z,97862.42
2018-11-26T05:57:48.766Z,97868.88
2018-11-26T05:58:24.152Z,97867.66
2018-11-26T05:58:59.582Z,97860.41
2018-11-26T05:59:34.943Z,97870.93
2018-11-26T06:00:13.758Z,97870.69
2018-11-26T06:00:49.180Z,97868.78
2018-11-26T06:01:24.611Z,97876.70
2018-11-26T06:02:00.047Z,97869.09
2018-11-26T06:02:35.715Z,97865.00
2018-11-26T06:03:10.951Z,97872.28
2018-11-26T06:03:46.285Z,97861.78
2018-11-26T06:04:22.516Z,97868.46
2018-11-26T06:04:58.781Z,97870.88
2018-11-26T06:05:34.097Z,97864.36
2018-11-26T06:06:09.476Z,97859.93
2018-11-26T06:06:45.323Z,97872.23
2018-11-26T06:07:20.555Z,97874.63
2018-11-26T06:07:55.962Z,97867.67
2018-11-26T06:08:31.249Z,97866.56
2018-11-26T06:09:09.149Z,97867.49
2018-11-26T06:09:44.460Z,97864.50
2018-11-26T06:10:19.733Z,97871.30
2018-11-26T06:10:55.357Z,97871.06
2018-11-26T06:11:30.606Z,97866.42
2018-11-26T06:12:06.010Z,97867.72
2018-11-26T06:12:41.388Z,97873.27
2018-11-26T06:13:16.808Z,97873.58
2018-11-26T06:13:52.255Z,97864.67
2018-11-26T06:14:27.538Z,97879.27
2018-11-26T06:15:02.914Z,97873.87
2018-11-26T06:15:38.156Z,97867.90
2018-11-26T06:16:13.507Z,97869.50
2018-11-26T06:16:53.699Z,97874.54
2018-11-26T06:17:24.114Z,97863.45
2018-11-26T06:17:59.299Z,97867.66
2018-11-26T06:18:34.802Z,97872.17
2018-11-26T06:19:10.310Z,97865.95
2018-11-26T06:19:45.738Z,97858.16
2018-11-26T06:20:21.206Z,97871.36
2018-11-26T06:20:56.517Z,97861.63
2018-11-26T06:21:31.700Z,97871.66
2018-11-26T06:22:07.096Z,97861.14
2018-11-26T06:22:43.747Z,97865.43
2018-11-26T06:23:19.032Z,97867.30
2018-11-26T06:23:54.607Z,97867.00
2018-11-26T06:24:29.864Z,97868.89
2018-11-26T06:25:05.956Z,97872.34
2018-11-26T06:25:41.293Z,97870.70
2018-11-26T06:26:16.539Z,97858.34
2018-11-26T06:26:52.061Z,97863.67
2018-11-26T06:27:27.181Z,97870.22
2018-11-26T06:28:02.439Z,97859.50
2018-11-26T06:28:37.514Z,97856.52
2018-11-26T06:29:13.041Z,97866.17
2018-11-26T06:29:48.301Z,97864.77
2018-11-26T06:30:23.623Z,97870.61
2018-11-26T06:30:58.982Z,97872.27
2018-11-26T06:31:34.268Z,97871.59
2018-11-26T06:32:09.657Z,97870.31
2018-11-26T06:32:45.119Z,97872.33
2018-11-26T06:33:20.473Z,97863.95
2018-11-26T06:33:55.802Z,97868.81
2018-11-26T06:34:31.146Z,97867.94
2018-11-26T06:35:10.043Z,97864.33
2018-11-26T06:35:45.452Z,97867.61
2018-11-26T06:36:20.778Z,97864.40
2018-11-26T06:36:55.928Z,97867.09
2018-11-26T06:37:31.204Z,97868.49
2018-11-26T06:38:07.704Z,97860.23
2018-11-26T06:38:43.016Z,97859.89
2018-11-26T06:39:18.303Z,97861.22
2018-11-26T06:39:53.537Z,97871.36
2018-11-26T06:40:28.930Z,97865.19
2018-11-26T06:41:04.169Z,97867.47
2018-11-26T06:41:39.970Z,97869.65
2018-11-26T06:42:15.311Z,97870.41
2018-11-26T06:42:50.690Z,97872.80
2018-11-26T06:43:25.915Z,97862.66
2018-11-26T06:44:01.439Z,97863.95
2018-11-26T06:44:36.933Z,97872.05
2018-11-26T06:45:15.421Z,97882.06
2018-11-26T06:45:50.684Z,97865.88
2018-11-26T06:46:26.044Z,97865.90
2018-11-26T06:47:01.409Z,97866.13
2018-11-26T06:47:36.568Z,97866.73
2018-11-26T06:48:11.977Z,97866.73
2018-11-26T06:48:47.274Z,97870.00
2018-11-26T06:49:22.644Z,97862.45
2018-11-26T06:49:57.995Z,97870.83
2018-11-26T06:50:33.459Z,97870.60
2018-11-26T06:51:09.103Z,97863.91
2018-11-26T06:51:44.748Z,97874.06
2018-11-26T06:52:20.215Z,97876.05
2018-11-26T06:52:55.439Z,97871.41
2018-11-26T06:53:30.695Z,97871.77
2018-11-26T06:54:06.030Z,97865.50
2018-11-26T06:54:41.528Z,97861.22
2018-11-26T06:55:19.706Z,97872.72
2018-11-26T06:55:54.930Z,97867.13
2018-11-26T06:56:30.381Z,97875.76
2018-11-26T06:57:06.170Z,97877.62
2018-11-26T06:57:41.287Z,97867.27
2018-11-26T06:58:16.714Z,97871.92